createdAt,value
2022-09-28T00:05:17.947Z,8.6
2022-09-28T00:11:17.953Z,8.6
2022-09-28T00:17:18.031Z,8.6
2022-09-28T00:23:17.937Z,8.6
2022-09-28T00:29:18.155Z,8.7
2022-09-28T00:35:17.965Z,8.9
2022-09-28T00:41:17.945Z,9
2022-09-28T00:47:17.934Z,9
2022-09-28T00:53:17.965Z,8.9
2022-09-28T00:59:18.078Z,8.9
2022-09-28T01:05:17.941Z,9
2022-09-28T01:11:17.951Z,9
2022-09-28T01:17:17.962Z,9.1
2022-09-28T01:23:17.940Z,9
2022-09-28T01:29:18.121Z,9.2
2022-09-28T01:35:17.943Z,8.8
2022-09-28T01:41:17.947Z,8.8
2022-09-28T01:47:18.026Z,8.7
2022-09-28T01:53:17.959Z,8.6
2022-09-28T01:59:18.061Z,8.6
2022-09-28T02:05:17.969Z,8.3
2022-09-28T02:11:17.943Z,8.4
2022-09-28T02:17:17.947Z,8.3
2022-09-28T02:23:17.983Z,8.5
2022-09-28T02:29:18.165Z,8.6
2022-09-28T02:35:17.956Z,8.5
2022-09-28T02:41:17.946Z,8.7
2022-09-28T02:47:17.924Z,8.9
2022-09-28T02:53:17.950Z,8.7
2022-09-28T02:59:18.168Z,8.6
2022-09-28T03:05:17.941Z,8.5
2022-09-28T03:11:17.933Z,8.5
2022-09-28T03:17:17.969Z,8.7
2022-09-28T03:23:24.921Z,8.9
2022-09-28T03:29:18.054Z,8.8
2022-09-28T03:35:17.984Z,8.8
2022-09-28T03:41:17.944Z,8.6
2022-09-28T03:47:17.939Z,8.5
2022-09-28T03:53:17.962Z,8.6
2022-09-28T03:59:18.019Z,8.5
2022-09-28T04:05:17.921Z,8.6
2022-09-28T04:11:17.971Z,8.7
2022-09-28T04:17:17.916Z,8.6
2022-09-28T04:23:17.939Z,8.8
2022-09-28T04:29:18.159Z,8.6
2022-09-28T04:35:17.955Z,8.6
2022-09-28T04:41:17.979Z,8.2
2022-09-28T04:47:17.996Z,8.2
2022-09-28T04:53:17.972Z,8.4
2022-09-28T04:59:18.142Z,8.4
2022-09-28T05:05:17.997Z,8.5
2022-09-28T05:11:17.921Z,8.2
2022-09-28T05:17:18.999Z,8.3
2022-09-28T05:23:19.032Z,8.2
2022-09-28T05:29:19.019Z,8.2
2022-09-28T05:35:19.009Z,8.3
2022-09-28T05:41:19.035Z,8.5
2022-09-28T05:47:18.982Z,8.5
2022-09-28T05:53:18.992Z,8.4
2022-09-28T05:59:19.045Z,8.7
2022-09-28T06:05:19.007Z,8.3
2022-09-28T06:11:19.002Z,8.6
2022-09-28T06:17:19.048Z,8.9
2022-09-28T06:23:18.991Z,8.9
2022-09-28T06:29:19.728Z,9
2022-09-28T06:35:19.019Z,9.1
2022-09-28T06:41:19.005Z,9
2022-09-28T06:47:19.014Z,9
2022-09-28T06:53:19.029Z,9.2
2022-09-28T06:59:18.998Z,9.1
2022-09-28T07:05:19.008Z,8.6
2022-09-28T07:11:19.028Z,8.7
2022-09-28T07:17:19.085Z,8.6
2022-09-28T07:23:19.955Z,9
2022-09-28T07:29:19.012Z,8.9
2022-09-28T07:35:19.031Z,8.9
2022-09-28T07:41:19.020Z,8.8
2022-09-28T07:47:19.023Z,8.7
2022-09-28T07:53:19.008Z,9
2022-09-28T07:59:19.017Z,9.2
2022-09-28T08:05:19.017Z,9.2
2022-09-28T08:11:19.006Z,9.5
2022-09-28T08:17:18.996Z,9.5
2022-09-28T08:23:19.029Z,9.3
2022-09-28T08:29:19.010Z,9.5
2022-09-28T08:35:19.019Z,10.4
2022-09-28T08:41:19.036Z,11.9
2022-09-28T08:47:19.002Z,11.2
2022-09-28T08:53:18.995Z,11.8
2022-09-28T08:59:19.017Z,11
2022-09-28T09:05:18.994Z,11
2022-09-28T09:11:19.013Z,10.4
2022-09-28T09:17:19.021Z,10.8
2022-09-28T09:23:19.015Z,11.8
2022-09-28T09:29:18.997Z,11.8
2022-09-28T09:35:21.088Z,11.8
2022-09-28T09:41:19.034Z,11.9
2022-09-28T09:47:19.015Z,11.1
2022-09-28T09:53:19.027Z,10.9
2022-09-28T09:59:19.183Z,11.9
2022-09-28T10:05:19.011Z,12.6
2022-09-28T10:11:19.063Z,12
2022-09-28T10:17:19.007Z,11.7
2022-09-28T10:23:18.998Z,12.3
2022-09-28T10:29:19.146Z,11.9
2022-09-28T10:35:18.999Z,11.9
2022-09-28T10:41:19.035Z,12.4
2022-09-28T10:47:19.031Z,12.1
2022-09-28T10:53:19.031Z,12.3
2022-09-28T10:59:19.016Z,13.1
2022-09-28T11:05:19.020Z,12.9
2022-09-28T11:11:18.996Z,12.2
2022-09-28T11:17:19.172Z,11.7
2022-09-28T11:23:19.102Z,11.8
2022-09-28T11:29:19.113Z,12.6
2022-09-28T11:35:19.001Z,14.1
2022-09-28T11:41:19.033Z,13.8
2022-09-28T11:47:19.017Z,13.3
2022-09-28T11:53:18.991Z,12.5
2022-09-28T11:59:19.046Z,12.6
2022-09-28T12:05:21.028Z,12.5
2022-09-28T12:11:18.997Z,12.1
2022-09-28T12:17:20.252Z,12.3
2022-09-28T12:23:18.997Z,12.4
2022-09-28T12:29:19.190Z,12.2
2022-09-28T12:35:19.045Z,12.3
2022-09-28T12:41:19.054Z,12.9
2022-09-28T12:47:18.998Z,13.4
2022-09-28T12:53:19.063Z,13.3
2022-09-28T12:59:19.179Z,12.8
2022-09-28T13:05:19.015Z,12.7
2022-09-28T13:11:19.043Z,13
2022-09-28T13:17:19.010Z,13.3
2022-09-28T13:23:19.024Z,13.3
2022-09-28T13:29:19.174Z,13.3
2022-09-28T13:35:19.091Z,13.1
2022-09-28T13:41:19.012Z,12.9
2022-09-28T13:47:21.056Z,12.9
2022-09-28T13:53:19.053Z,13.4
2022-09-28T13:59:19.043Z,13.5
2022-09-28T14:05:19.053Z,13.5
2022-09-28T14:11:19.023Z,13.7
2022-09-28T14:17:19.033Z,14
2022-09-28T14:23:19.035Z,13.8
2022-09-28T14:29:19.046Z,13.4
2022-09-28T14:35:19.116Z,13.9
2022-09-28T14:41:19.083Z,13.5
2022-09-28T14:47:19.025Z,13.6
2022-09-28T14:53:19.024Z,13.5
2022-09-28T14:59:19.046Z,14
2022-09-28T15:05:19.209Z,13.7
2022-09-28T15:11:19.044Z,13.9
2022-09-28T15:17:19.070Z,13.8
2022-09-28T15:23:19.043Z,13.8
2022-09-28T15:29:19.045Z,13.3
2022-09-28T15:35:19.056Z,13.3
2022-09-28T15:41:19.030Z,13.4
2022-09-28T15:47:19.009Z,13.7
2022-09-28T15:53:19.097Z,13.6
2022-09-28T15:59:19.047Z,13.4
2022-09-28T16:05:19.045Z,12.9
2022-09-28T16:11:19.088Z,13
2022-09-28T16:17:19.032Z,12.7
2022-09-28T16:23:19.049Z,12.6
2022-09-28T16:29:19.104Z,12.2
2022-09-28T16:35:19.042Z,11.4
2022-09-28T16:41:19.049Z,11.3
2022-09-28T16:47:19.074Z,10.7
2022-09-28T16:53:19.023Z,10.5
2022-09-28T16:59:19.024Z,10.6
2022-09-28T17:05:19.056Z,10.6
2022-09-28T17:11:23.689Z,10.8
2022-09-28T17:17:19.112Z,10.8
2022-09-28T17:29:19.051Z,11
2022-09-28T17:35:26.266Z,11
2022-09-28T17:41:20.593Z,11.2
2022-09-28T17:47:19.035Z,10.9
2022-09-28T17:53:19.045Z,10.8
2022-09-28T17:59:19.060Z,11
2022-09-28T18:05:19.025Z,11.2
2022-09-28T18:11:19.039Z,11.2
2022-09-28T18:17:19.073Z,11
2022-09-28T18:23:19.021Z,11.1
2022-09-28T18:29:19.023Z,11
2022-09-28T18:35:22.813Z,11.2
2022-09-28T18:41:19.043Z,10.9
2022-09-28T18:47:19.045Z,10.8
2022-09-28T18:53:19.039Z,10.7
2022-09-28T18:59:19.047Z,10.9
2022-09-28T19:05:19.017Z,10.9
2022-09-28T19:11:19.073Z,10.8
2022-09-28T19:17:19.043Z,10.5
2022-09-28T19:23:19.054Z,10.4
2022-09-28T19:29:19.133Z,10.3
2022-09-28T19:35:19.033Z,10.3
2022-09-28T19:41:19.061Z,10.4
2022-09-28T19:47:19.071Z,10.4
2022-09-28T19:53:19.061Z,10
2022-09-28T19:59:19.026Z,9.9
2022-09-28T20:05:19.072Z,9.9
2022-09-28T20:11:19.037Z,9.8
2022-09-28T20:17:19.055Z,9.5
2022-09-28T20:23:19.069Z,9.5
2022-09-28T20:29:19.103Z,9.6
2022-09-28T20:35:30.375Z,9.5
2022-09-28T20:41:19.267Z,9.5
2022-09-28T20:47:19.038Z,9.5
2022-09-28T20:53:19.059Z,9.3
2022-09-28T20:59:19.080Z,9
2022-09-28T21:05:19.059Z,9
2022-09-28T21:11:19.060Z,8.9
2022-09-28T21:17:19.060Z,9
2022-09-28T21:23:23.969Z,8.9
2022-09-28T21:29:19.049Z,9.1
2022-09-28T21:35:19.051Z,9.3
2022-09-28T21:41:19.049Z,9.2
2022-09-28T21:47:19.046Z,9.1
2022-09-28T21:53:19.052Z,9.2
2022-09-28T21:59:19.044Z,9.3
2022-09-28T22:05:19.048Z,9.2
2022-09-28T22:11:19.055Z,9
2022-09-28T22:17:19.035Z,8.7
2022-09-28T22:23:19.022Z,8.8
2022-09-28T22:29:19.079Z,8.7
2022-09-28T22:35:19.036Z,8.7
2022-09-28T22:41:19.040Z,8.6
2022-09-28T22:47:19.105Z,8.5
2022-09-28T22:53:19.028Z,8.5
2022-09-28T22:59:19.178Z,8.5
2022-09-28T23:05:19.076Z,8.4
2022-09-28T23:11:19.059Z,8.5
2022-09-28T23:17:19.055Z,8.5
2022-09-28T23:23:19.084Z,8.4
2022-09-28T23:29:19.164Z,8.3
2022-09-28T23:35:19.046Z,8.3
2022-09-28T23:41:19.077Z,8.3
2022-09-28T23:47:19.049Z,8.3
2022-09-28T23:53:19.076Z,8.2
2022-09-28T23:59:19.200Z,8.3
